createdAt,value
2019-03-22T00:00:33.519Z,40.83
2019-03-22T00:03:01.365Z,37.50
2019-03-22T00:05:30.451Z,43.17
2019-03-22T00:07:57.985Z,40.90
2019-03-22T00:10:25.986Z,38.98
2019-03-22T00:12:53.757Z,44.20
2019-03-22T00:15:21.246Z,37.83
2019-03-22T00:17:49.487Z,37.83
2019-03-22T00:20:16.982Z,34.35
2019-03-22T00:22:44.515Z,37.93
2019-03-22T00:25:12.133Z,40.15
2019-03-22T00:27:40.729Z,41.65
2019-03-22T00:30:08.980Z,46.73
2019-03-22T00:32:36.643Z,42.85
2019-03-22T00:35:04.655Z,48.52
2019-03-22T00:37:32.227Z,43.45
2019-03-22T00:39:59.741Z,45.50
2019-03-22T00:42:27.232Z,51.13
2019-03-22T00:44:54.856Z,48.38
2019-03-22T00:47:22.343Z,49.65
2019-03-22T00:49:50.193Z,53.15
2019-03-22T00:52:17.814Z,51.80
2019-03-22T00:54:45.340Z,48.50
2019-03-22T00:57:12.893Z,52.93
2019-03-22T00:59:41.621Z,50.70
2019-03-22T01:02:09.480Z,50.43
2019-03-22T01:04:38.295Z,47.05
2019-03-22T01:07:06.123Z,51.42
2019-03-22T01:09:33.977Z,49.15
2019-03-22T01:12:01.576Z,49.45
2019-03-22T01:14:29.075Z,46.80
2019-03-22T01:16:56.622Z,44.38
2019-03-22T01:19:24.440Z,46.00
2019-03-22T01:21:52.472Z,44.85
2019-03-22T01:24:20.176Z,46.05
2019-03-22T01:26:48.164Z,48.35
2019-03-22T01:29:15.673Z,42.78
2019-03-22T01:31:43.197Z,43.70
2019-03-22T01:34:10.802Z,43.50
2019-03-22T01:36:38.323Z,43.98
2019-03-22T01:39:06.145Z,44.58
2019-03-22T01:41:33.677Z,49.00
2019-03-22T01:44:01.470Z,48.23
2019-03-22T01:46:29.082Z,44.83
2019-03-22T01:48:56.870Z,46.88
2019-03-22T01:51:24.377Z,47.50
2019-03-22T01:53:51.897Z,44.05
2019-03-22T01:56:19.782Z,48.92
2019-03-22T01:58:47.651Z,47.75
2019-03-22T02:01:15.374Z,48.42
2019-03-22T02:03:43.179Z,52.45
2019-03-22T02:06:10.699Z,47.03
2019-03-22T02:08:38.362Z,46.92
2019-03-22T02:11:05.963Z,53.33
2019-03-22T02:13:33.939Z,48.35
2019-03-22T02:16:01.457Z,50.63
2019-03-22T02:18:29.286Z,48.68
2019-03-22T02:20:57.226Z,47.27
2019-03-22T02:23:24.734Z,50.28
2019-03-22T02:25:52.694Z,48.10
2019-03-22T02:28:20.288Z,44.80
2019-03-22T02:30:48.030Z,46.58
2019-03-22T02:33:16.742Z,50.60
2019-03-22T02:35:44.360Z,45.90
2019-03-22T02:38:11.973Z,46.00
2019-03-22T02:40:39.486Z,46.13
2019-03-22T02:43:08.034Z,44.23
2019-03-22T02:45:36.952Z,49.48
2019-03-22T02:48:04.961Z,45.43
2019-03-22T02:50:32.638Z,51.00
2019-03-22T02:53:00.400Z,46.02
2019-03-22T02:55:28.302Z,49.50
2019-03-22T02:57:56.432Z,45.63
2019-03-22T03:00:24.167Z,50.03
2019-03-22T03:02:51.813Z,45.98
2019-03-22T03:05:19.468Z,48.85
2019-03-22T03:07:47.327Z,50.70
2019-03-22T03:10:15.409Z,46.95
2019-03-22T03:12:43.397Z,47.13
2019-03-22T03:15:11.553Z,48.35
2019-03-22T03:17:39.298Z,51.68
2019-03-22T03:20:08.111Z,51.28
2019-03-22T03:22:35.623Z,46.28
2019-03-22T03:25:04.879Z,42.00
2019-03-22T03:27:32.477Z,47.98
2019-03-22T03:30:00.634Z,47.83
2019-03-22T03:32:28.595Z,46.13
2019-03-22T03:34:56.617Z,44.58
2019-03-22T03:37:24.533Z,49.42
2019-03-22T03:39:52.204Z,48.48
2019-03-22T03:42:19.909Z,47.73
2019-03-22T03:44:47.821Z,46.23
2019-03-22T03:47:15.632Z,49.93
2019-03-22T03:49:43.595Z,46.00
2019-03-22T03:52:11.153Z,47.33
2019-03-22T03:54:39.140Z,49.13
2019-03-22T03:57:06.761Z,49.77
2019-03-22T03:59:36.156Z,50.90
2019-03-22T04:02:03.870Z,50.23
2019-03-22T04:04:32.278Z,57.27
2019-03-22T04:06:59.857Z,50.28
2019-03-22T04:09:27.521Z,50.70
2019-03-22T04:11:56.175Z,51.53
2019-03-22T04:14:23.755Z,49.93
2019-03-22T04:16:51.408Z,49.38
2019-03-22T04:19:19.380Z,49.60
2019-03-22T04:21:46.920Z,58.50
2019-03-22T04:24:15.586Z,57.85
2019-03-22T04:26:43.314Z,54.75
2019-03-22T04:29:11.268Z,55.78
2019-03-22T04:31:38.803Z,55.43
2019-03-22T04:34:06.795Z,53.52
2019-03-22T04:36:34.329Z,54.73
2019-03-22T04:39:01.913Z,48.45
2019-03-22T04:41:30.106Z,49.25
2019-03-22T04:43:58.144Z,54.48
2019-03-22T04:46:26.994Z,54.23
2019-03-22T04:48:56.424Z,50.10
2019-03-22T04:51:25.015Z,50.43
2019-03-22T04:53:58.674Z,52.58
2019-03-22T04:56:26.938Z,54.98
2019-03-22T04:58:55.706Z,51.53
2019-03-22T05:01:23.854Z,56.37
2019-03-22T05:03:52.320Z,55.90
2019-03-22T05:06:21.521Z,50.80
2019-03-22T05:08:52.819Z,49.67
2019-03-22T05:11:21.556Z,50.25
2019-03-22T05:13:52.707Z,48.60
2019-03-22T05:16:21.375Z,48.33
2019-03-22T05:18:51.169Z,51.35
2019-03-22T05:21:23.291Z,46.37
2019-03-22T05:23:53.734Z,50.73
2019-03-22T05:26:24.882Z,50.12
2019-03-22T05:28:53.676Z,51.13
2019-03-22T05:31:31.057Z,55.48
2019-03-22T05:33:58.625Z,54.33
2019-03-22T05:36:26.186Z,54.42
2019-03-22T05:38:54.259Z,53.10
2019-03-22T05:41:21.851Z,55.38
2019-03-22T05:43:49.431Z,53.08
2019-03-22T05:46:17.050Z,58.20
2019-03-22T05:48:44.676Z,50.67
2019-03-22T05:51:12.567Z,51.90
2019-03-22T05:53:40.467Z,58.65
2019-03-22T05:56:08.564Z,56.00
2019-03-22T05:58:36.554Z,54.67
2019-03-22T06:01:05.401Z,54.20
2019-03-22T06:03:33.040Z,54.15
2019-03-22T06:06:00.600Z,53.95
2019-03-22T06:08:28.230Z,53.85
2019-03-22T06:10:55.893Z,60.60
2019-03-22T06:13:23.685Z,62.50
2019-03-22T06:15:51.352Z,59.25
2019-03-22T06:18:19.046Z,60.78
2019-03-22T06:20:46.977Z,60.65
2019-03-22T06:23:14.615Z,58.60
2019-03-22T06:25:42.263Z,57.23
2019-03-22T06:28:09.864Z,52.93
2019-03-22T06:30:37.544Z,59.27
2019-03-22T06:33:05.084Z,56.10
2019-03-22T06:35:32.744Z,59.20
2019-03-22T06:38:00.366Z,59.90
2019-03-22T06:40:28.275Z,58.30
2019-03-22T06:42:56.828Z,57.70
2019-03-22T06:45:24.512Z,63.13
2019-03-22T06:47:52.114Z,61.13
2019-03-22T06:50:19.738Z,65.30
2019-03-22T06:52:47.625Z,68.15
2019-03-22T06:55:15.214Z,64.30
2019-03-22T06:57:42.955Z,63.38
2019-03-22T07:00:11.117Z,61.30
2019-03-22T07:02:38.941Z,61.23
2019-03-22T07:05:06.814Z,69.67
2019-03-22T07:07:34.371Z,67.80
2019-03-22T07:10:03.047Z,67.05
2019-03-22T07:12:30.738Z,61.05
2019-03-22T07:14:58.625Z,64.53
2019-03-22T07:17:27.005Z,67.42
2019-03-22T07:19:54.551Z,63.08
2019-03-22T07:22:22.082Z,61.98
2019-03-22T07:24:49.741Z,61.48
2019-03-22T07:27:17.312Z,54.90
2019-03-22T07:29:45.327Z,65.20
2019-03-22T07:32:12.948Z,63.05
2019-03-22T07:34:40.864Z,66.45
2019-03-22T07:37:08.533Z,65.78
2019-03-22T07:39:36.343Z,61.98
2019-03-22T07:42:04.126Z,64.80
2019-03-22T07:44:31.759Z,57.03
2019-03-22T07:46:59.299Z,70.50
2019-03-22T07:49:27.391Z,68.70
2019-03-22T07:51:55.383Z,66.22
2019-03-22T07:54:22.915Z,62.27
2019-03-22T07:56:50.671Z,56.60
2019-03-22T07:59:18.315Z,65.42
2019-03-22T08:01:46.582Z,68.07
2019-03-22T08:04:14.839Z,61.90
2019-03-22T08:06:42.415Z,62.43
2019-03-22T08:09:10.083Z,68.47
2019-03-22T08:11:38.885Z,64.32
2019-03-22T08:14:06.426Z,65.78
2019-03-22T08:16:35.236Z,64.67
2019-03-22T08:19:02.828Z,70.67
2019-03-22T08:21:30.467Z,71.53
2019-03-22T08:23:59.096Z,67.25
2019-03-22T08:26:26.760Z,71.75
2019-03-22T08:28:55.371Z,70.67
2019-03-22T08:31:23.331Z,70.17
2019-03-22T08:33:50.932Z,61.20
2019-03-22T08:36:18.971Z,64.07
2019-03-22T08:38:46.640Z,59.38
2019-03-22T08:41:14.279Z,61.18
2019-03-22T08:43:42.380Z,60.35
2019-03-22T08:46:10.112Z,48.95
2019-03-22T08:48:39.125Z,58.38
2019-03-22T08:51:07.221Z,54.50
2019-03-22T08:53:35.138Z,53.00
2019-03-22T08:56:02.871Z,52.45
2019-03-22T08:58:30.634Z,56.55
2019-03-22T09:00:59.395Z,52.03
2019-03-22T09:03:27.009Z,53.90
2019-03-22T09:05:55.711Z,55.70
2019-03-22T09:08:23.300Z,53.42
2019-03-22T09:10:51.000Z,50.05
2019-03-22T09:13:18.748Z,51.75
2019-03-22T09:15:46.380Z,51.48
2019-03-22T09:18:15.496Z,49.35
2019-03-22T09:20:44.004Z,50.52
2019-03-22T09:23:11.614Z,49.73
2019-03-22T09:25:39.203Z,50.10
2019-03-22T09:28:07.029Z,52.83
2019-03-22T09:30:35.140Z,53.52
2019-03-22T09:33:02.828Z,54.80
2019-03-22T09:35:31.210Z,56.13
2019-03-22T09:38:12.029Z,47.70
2019-03-22T09:40:28.499Z,52.27
2019-03-22T09:42:56.084Z,49.67
2019-03-22T09:45:24.389Z,53.33
2019-03-22T09:47:52.055Z,48.30
2019-03-22T09:50:20.799Z,55.20
2019-03-22T09:52:48.482Z,49.83
2019-03-22T09:55:16.491Z,53.40
2019-03-22T09:57:44.487Z,50.88
2019-03-22T10:00:21.491Z,51.77
2019-03-22T10:02:49.288Z,54.00
2019-03-22T10:05:16.806Z,53.90
2019-03-22T10:07:44.324Z,50.67
2019-03-22T10:10:13.211Z,51.40
2019-03-22T10:12:41.075Z,51.65
2019-03-22T10:15:08.716Z,51.63
2019-03-22T10:17:37.254Z,48.78
2019-03-22T10:20:05.622Z,52.30
2019-03-22T10:22:33.262Z,52.13
2019-03-22T10:25:00.784Z,54.80
2019-03-22T10:27:28.505Z,56.98
2019-03-22T10:29:56.651Z,53.98
2019-03-22T10:32:24.371Z,56.40
2019-03-22T10:34:51.948Z,50.85
2019-03-22T10:37:19.537Z,50.90
2019-03-22T10:39:47.129Z,55.95
2019-03-22T10:42:15.076Z,51.98
2019-03-22T10:44:42.706Z,57.15
2019-03-22T10:47:10.795Z,53.30
2019-03-22T10:49:41.715Z,54.65
2019-03-22T10:52:11.071Z,55.00
2019-03-22T10:54:38.912Z,55.30
2019-03-22T10:57:06.820Z,51.00
2019-03-22T10:59:37.158Z,60.12
2019-03-22T11:02:07.818Z,58.92
2019-03-22T11:04:35.080Z,49.03
2019-03-22T11:07:03.052Z,49.27
2019-03-22T11:09:30.590Z,51.53
2019-03-22T11:11:58.250Z,53.85
2019-03-22T11:14:25.896Z,47.53
2019-03-22T11:16:53.690Z,55.45
2019-03-22T11:19:21.415Z,50.73
2019-03-22T11:21:49.074Z,51.65
2019-03-22T11:24:16.614Z,55.90
2019-03-22T11:26:44.403Z,56.65
2019-03-22T11:29:12.175Z,53.78
2019-03-22T11:31:40.425Z,58.60
2019-03-22T11:34:08.399Z,50.80
2019-03-22T11:36:36.328Z,53.83
2019-03-22T11:39:15.551Z,52.17
2019-03-22T11:41:38.482Z,54.73
2019-03-22T11:44:06.327Z,47.88
2019-03-22T11:46:33.956Z,53.50
2019-03-22T11:49:01.559Z,56.83
2019-03-22T11:51:29.247Z,51.63
2019-03-22T11:53:56.866Z,55.12
2019-03-22T11:56:24.512Z,55.40
2019-03-22T11:58:52.125Z,50.73
2019-03-22T12:01:22.312Z,56.15
2019-03-22T12:03:49.488Z,53.50
2019-03-22T12:06:16.983Z,44.63
2019-03-22T12:08:44.637Z,54.75
2019-03-22T12:11:12.303Z,57.95
2019-03-22T12:13:40.792Z,69.75
2019-03-22T12:16:08.427Z,56.40
2019-03-22T12:18:36.130Z,55.98
2019-03-22T12:21:03.698Z,58.78
2019-03-22T12:23:31.676Z,51.88
2019-03-22T12:25:59.439Z,50.52
2019-03-22T12:28:27.376Z,54.45
2019-03-22T12:30:55.001Z,55.25
2019-03-22T12:33:22.549Z,63.83
2019-03-22T12:35:51.213Z,56.02
2019-03-22T12:38:18.768Z,56.28
2019-03-22T12:40:46.345Z,59.67
2019-03-22T12:43:13.880Z,54.98
2019-03-22T12:45:41.525Z,57.60
2019-03-22T12:48:09.394Z,54.60
2019-03-22T12:50:36.986Z,55.17
2019-03-22T12:53:04.484Z,53.30
2019-03-22T12:55:32.018Z,54.25
2019-03-22T12:57:59.643Z,57.13
2019-03-22T13:00:27.475Z,50.78
2019-03-22T13:02:56.250Z,55.25
2019-03-22T13:05:23.961Z,58.80
2019-03-22T13:07:51.918Z,59.63
2019-03-22T13:10:21.759Z,53.87
2019-03-22T13:12:49.635Z,56.42
2019-03-22T13:15:17.565Z,58.20
2019-03-22T13:17:48.403Z,51.25
2019-03-22T13:20:16.172Z,53.20
2019-03-22T13:22:43.655Z,51.10
2019-03-22T13:25:12.864Z,58.00
2019-03-22T13:27:40.475Z,57.80
2019-03-22T13:30:09.019Z,59.42
2019-03-22T13:32:36.824Z,59.35
2019-03-22T13:35:05.142Z,55.50
2019-03-22T13:37:33.115Z,58.78
2019-03-22T13:40:00.750Z,55.38
2019-03-22T13:42:28.309Z,57.53
2019-03-22T13:44:55.795Z,48.15
2019-03-22T13:47:23.326Z,58.08
2019-03-22T13:49:50.869Z,54.60
2019-03-22T13:52:24.596Z,54.95
2019-03-22T13:54:52.195Z,54.83
2019-03-22T13:57:20.115Z,63.10
2019-03-22T13:59:47.695Z,55.55
2019-03-22T14:02:15.661Z,65.20
2019-03-22T14:04:43.488Z,57.95
2019-03-22T14:07:11.167Z,59.30
2019-03-22T14:09:38.689Z,55.92
2019-03-22T14:12:06.478Z,51.15
2019-03-22T14:14:34.002Z,49.88
2019-03-22T14:17:01.638Z,51.60
2019-03-22T14:19:29.483Z,63.65
2019-03-22T14:21:57.014Z,59.75
2019-03-22T14:24:24.830Z,54.13
2019-03-22T14:26:52.414Z,52.58
2019-03-22T14:29:20.280Z,57.08
2019-03-22T14:31:47.852Z,51.02
2019-03-22T14:34:16.051Z,59.45
2019-03-22T14:36:43.737Z,51.50
2019-03-22T14:39:11.465Z,47.62
2019-03-22T14:41:39.024Z,53.87
2019-03-22T14:44:06.551Z,54.77
2019-03-22T14:46:34.110Z,53.50
2019-03-22T14:49:02.064Z,53.30
2019-03-22T14:51:29.739Z,49.23
2019-03-22T14:53:57.490Z,61.23
2019-03-22T14:56:26.276Z,61.28
2019-03-22T14:58:53.899Z,48.58
2019-03-22T15:01:22.155Z,49.00
2019-03-22T15:03:49.944Z,48.13
2019-03-22T15:06:17.632Z,62.80
2019-03-22T15:08:45.303Z,50.55
2019-03-22T15:11:12.831Z,54.03
2019-03-22T15:13:46.691Z,49.67
2019-03-22T15:16:30.438Z,56.53
2019-03-22T15:19:19.660Z,60.17
2019-03-22T15:22:05.372Z,52.45
2019-03-22T15:25:04.913Z,57.67
2019-03-22T15:27:50.751Z,51.42
2019-03-22T15:30:44.262Z,47.45
2019-03-22T15:33:34.637Z,55.12
2019-03-22T15:36:30.437Z,51.63
2019-03-22T15:39:17.324Z,51.68
2019-03-22T15:42:06.936Z,57.35
2019-03-22T15:44:34.616Z,57.98
2019-03-22T15:47:02.130Z,59.58
2019-03-22T15:49:30.156Z,58.02
2019-03-22T15:51:57.713Z,54.18
2019-03-22T15:54:25.734Z,53.33
2019-03-22T15:56:53.275Z,57.27
2019-03-22T15:59:21.095Z,54.55
2019-03-22T16:01:48.858Z,61.00
2019-03-22T16:04:18.721Z,56.55
2019-03-22T16:06:46.375Z,58.58
2019-03-22T16:09:14.051Z,59.65
2019-03-22T16:11:41.903Z,55.58
2019-03-22T16:14:09.489Z,56.28
2019-03-22T16:16:36.980Z,51.55
2019-03-22T16:19:04.632Z,58.60
2019-03-22T16:21:32.631Z,60.83
2019-03-22T16:24:00.218Z,58.05
2019-03-22T16:26:27.722Z,59.27
2019-03-22T16:28:55.214Z,55.23
2019-03-22T16:31:22.985Z,57.40
2019-03-22T16:33:54.816Z,66.17
2019-03-22T16:36:20.912Z,63.75
2019-03-22T16:38:48.459Z,53.52
2019-03-22T16:41:15.975Z,55.65
2019-03-22T16:43:43.467Z,52.03
2019-03-22T16:46:11.067Z,55.65
2019-03-22T16:48:38.910Z,50.60
2019-03-22T16:51:06.499Z,67.15
2019-03-22T16:53:34.071Z,65.50
2019-03-22T16:56:02.120Z,51.42
2019-03-22T16:58:29.710Z,65.05
2019-03-22T17:00:57.595Z,61.73
2019-03-22T17:03:25.295Z,60.15
2019-03-22T17:05:53.145Z,54.18
2019-03-22T17:08:20.847Z,65.25
2019-03-22T17:10:48.379Z,54.45
2019-03-22T17:13:16.280Z,49.60
2019-03-22T17:15:43.916Z,55.73
2019-03-22T17:18:11.752Z,60.48
2019-03-22T17:20:39.609Z,64.70
2019-03-22T17:23:07.159Z,54.30
2019-03-22T17:25:34.766Z,64.00
2019-03-22T17:28:02.412Z,54.35
2019-03-22T17:30:30.095Z,58.87
2019-03-22T17:32:57.703Z,53.58
2019-03-22T17:35:26.574Z,63.68
2019-03-22T17:37:54.583Z,64.40
2019-03-22T17:40:22.867Z,57.23
2019-03-22T17:42:50.487Z,59.10
2019-03-22T17:45:18.467Z,60.65
2019-03-22T17:47:46.272Z,66.95
2019-03-22T17:50:16.022Z,61.98
2019-03-22T17:52:43.799Z,57.53
2019-03-22T17:55:12.055Z,61.25
2019-03-22T17:57:39.719Z,59.55
2019-03-22T18:00:08.078Z,60.17
2019-03-22T18:02:36.554Z,64.03
2019-03-22T18:05:05.670Z,62.40
2019-03-22T18:07:33.516Z,59.05
2019-03-22T18:10:01.106Z,60.25
2019-03-22T18:12:28.877Z,62.35
2019-03-22T18:14:56.405Z,55.95
2019-03-22T18:17:24.285Z,58.78
2019-03-22T18:19:51.836Z,62.05
2019-03-22T18:22:20.120Z,62.05
2019-03-22T18:24:47.882Z,64.25
2019-03-22T18:27:15.947Z,60.58
2019-03-22T18:29:43.848Z,61.63
2019-03-22T18:32:11.395Z,62.83
2019-03-22T18:34:39.273Z,63.48
2019-03-22T18:37:06.870Z,58.35
2019-03-22T18:39:34.455Z,60.78
2019-03-22T18:42:02.018Z,56.88
2019-03-22T18:44:29.720Z,62.55
2019-03-22T18:46:57.545Z,61.20
2019-03-22T18:49:25.421Z,62.60
2019-03-22T18:51:53.129Z,61.92
2019-03-22T18:54:20.660Z,58.10
2019-03-22T18:56:48.846Z,58.65
2019-03-22T18:59:16.460Z,60.90
2019-03-22T19:01:44.025Z,57.15
2019-03-22T19:04:11.723Z,54.88
2019-03-22T19:06:39.364Z,64.00
2019-03-22T19:09:07.770Z,63.83
2019-03-22T19:11:35.671Z,59.05
2019-03-22T19:14:03.816Z,61.42
2019-03-22T19:16:31.511Z,61.10
2019-03-22T19:18:59.099Z,54.77
2019-03-22T19:21:27.078Z,60.17
2019-03-22T19:23:54.748Z,58.68
2019-03-22T19:26:22.657Z,59.42
2019-03-22T19:28:50.518Z,61.83
2019-03-22T19:31:18.147Z,62.75
2019-03-22T19:33:45.691Z,60.40
2019-03-22T19:36:13.304Z,57.48
2019-03-22T19:38:41.675Z,61.45
2019-03-22T19:41:10.228Z,55.03
2019-03-22T19:43:37.798Z,59.83
2019-03-22T19:46:05.653Z,58.85
2019-03-22T19:48:33.283Z,62.45
2019-03-22T19:51:00.835Z,58.90
2019-03-22T19:53:28.454Z,59.50
2019-03-22T19:55:56.467Z,55.73
2019-03-22T19:58:24.102Z,54.53
2019-03-22T20:00:51.803Z,62.75
2019-03-22T20:03:19.322Z,55.75
2019-03-22T20:05:47.902Z,60.85
2019-03-22T20:08:15.794Z,54.50
2019-03-22T20:10:43.303Z,58.90
2019-03-22T20:13:11.042Z,61.28
2019-03-22T20:15:38.713Z,57.60
2019-03-22T20:18:06.437Z,58.48
2019-03-22T20:20:36.159Z,59.33
2019-03-22T20:23:03.557Z,63.28
2019-03-22T20:25:31.530Z,64.17
2019-03-22T20:28:00.924Z,61.65
2019-03-22T20:30:28.454Z,58.20
2019-03-22T20:32:55.986Z,66.70
2019-03-22T20:35:23.545Z,64.42
2019-03-22T20:37:51.548Z,66.77
2019-03-22T20:40:19.562Z,70.47
2019-03-22T20:42:47.164Z,60.20
2019-03-22T20:45:23.560Z,64.62
2019-03-22T20:47:44.377Z,65.20
2019-03-22T20:50:12.351Z,69.37
2019-03-22T20:52:39.913Z,61.42
2019-03-22T20:55:08.498Z,64.95
2019-03-22T20:57:36.362Z,66.72
2019-03-22T21:00:04.823Z,69.30
2019-03-22T21:02:33.612Z,72.50
2019-03-22T21:05:01.166Z,63.20
2019-03-22T21:07:28.847Z,62.85
2019-03-22T21:09:56.434Z,65.32
2019-03-22T21:12:24.421Z,69.30
2019-03-22T21:14:51.963Z,68.55
2019-03-22T21:17:19.941Z,69.12
2019-03-22T21:19:47.597Z,62.48
2019-03-22T21:22:15.141Z,64.77
2019-03-22T21:24:43.005Z,67.78
2019-03-22T21:27:15.494Z,63.30
2019-03-22T21:29:44.337Z,77.03
2019-03-22T21:32:11.202Z,63.95
2019-03-22T21:34:39.143Z,64.35
2019-03-22T21:37:07.169Z,67.78
2019-03-22T21:39:35.068Z,60.40
2019-03-22T21:42:02.790Z,63.50
2019-03-22T21:44:30.560Z,71.77
2019-03-22T21:46:58.215Z,77.45
2019-03-22T21:49:25.893Z,70.03
2019-03-22T21:51:53.759Z,76.42
2019-03-22T21:54:21.411Z,69.55
2019-03-22T21:56:49.075Z,58.42
2019-03-22T21:59:16.662Z,69.97
2019-03-22T22:01:44.380Z,72.53
2019-03-22T22:04:12.348Z,72.45
2019-03-22T22:06:39.983Z,71.17
2019-03-22T22:09:07.592Z,67.27
2019-03-22T22:11:37.410Z,61.70
2019-03-22T22:14:05.286Z,63.83
2019-03-22T22:16:33.157Z,75.50
2019-03-22T22:19:01.182Z,75.97
2019-03-22T22:21:29.019Z,70.32
2019-03-22T22:23:57.483Z,70.52
2019-03-22T22:26:25.674Z,75.10
2019-03-22T22:28:53.506Z,74.92
2019-03-22T22:31:21.207Z,75.37
2019-03-22T22:33:49.058Z,72.50
2019-03-22T22:36:18.259Z,81.08
2019-03-22T22:38:48.524Z,75.80
2019-03-22T22:41:16.687Z,73.65
2019-03-22T22:43:45.282Z,76.77
2019-03-22T22:46:14.633Z,79.60
2019-03-22T22:48:43.692Z,79.85
2019-03-22T22:51:14.776Z,80.77
2019-03-22T22:53:43.160Z,75.95
2019-03-22T22:56:11.085Z,74.62
2019-03-22T22:58:38.728Z,75.62
2019-03-22T23:01:07.161Z,81.25
2019-03-22T23:03:34.937Z,83.87
2019-03-22T23:06:09.351Z,80.32
2019-03-22T23:08:32.350Z,76.57
2019-03-22T23:11:00.046Z,85.97
2019-03-22T23:13:28.047Z,76.45
2019-03-22T23:15:56.145Z,81.80
2019-03-22T23:18:23.808Z,86.80
2019-03-22T23:20:51.793Z,76.45
2019-03-22T23:23:19.479Z,79.62
2019-03-22T23:25:47.261Z,81.95
2019-03-22T23:28:15.054Z,81.42
2019-03-22T23:30:54.971Z,72.20
2019-03-22T23:33:22.690Z,80.07
2019-03-22T23:35:50.289Z,75.32
2019-03-22T23:38:17.992Z,86.90
2019-03-22T23:40:52.747Z,85.70
2019-03-22T23:43:23.710Z,79.97
2019-03-22T23:45:51.634Z,77.62
2019-03-22T23:48:19.712Z,75.85
2019-03-22T23:50:48.075Z,73.50
2019-03-22T23:53:17.564Z,82.47
2019-03-22T23:55:45.607Z,81.00
2019-03-22T23:58:13.323Z,70.22
